Time;durP1;ratioP1;P1;durP2;ratioP2;P2;SDS_P1;SDS_P2;PMS_P1;PMS_P2;Temp;Humidity;BMP_temperature;BMP_pressure;BME280_temperature;BME280_humidity;BME280_pressure;Samples;Min_cycle;Max_cycle;Signal;HPM_P1;HPM_P2
2021/03/12 00:00:10;;;;;;;21.98;3.47;;;6.50;90.00;;;;;;5054413;28;20116;-71
2021/03/12 00:02:36;;;;;;;14.60;2.72;;;6.50;89.60;;;;;;5054507;28;20416;-71
2021/03/12 00:05:04;;;;;;;15.55;2.90;;;6.50;89.50;;;;;;5053849;28;20107;-71
2021/03/12 00:07:30;;;;;;;13.50;2.20;;;6.50;89.60;;;;;;5054056;28;20385;-71
2021/03/12 00:09:56;;;;;;;12.73;3.25;;;6.50;89.20;;;;;;5037134;28;20091;-71
2021/03/12 00:12:21;;;;;;;10.98;2.70;;;6.50;89.30;;;;;;5054217;28;20040;-71
2021/03/12 00:14:47;;;;;;;12.95;2.72;;;6.40;89.40;;;;;;5053799;28;20436;-71
2021/03/12 00:17:13;;;;;;;16.83;3.75;;;6.40;90.00;;;;;;5053939;28;20500;-71
2021/03/12 00:19:39;;;;;;;13.15;3.05;;;6.40;89.40;;;;;;5036578;28;20056;-71
2021/03/12 00:22:05;;;;;;;11.57;2.70;;;6.50;88.70;;;;;;5054342;28;20033;-71
2021/03/12 00:24:31;;;;;;;14.68;3.05;;;6.40;89.20;;;;;;5053697;28;20029;-71
2021/03/12 00:26:59;;;;;;;8.15;2.20;;;6.30;89.40;;;;;;5053905;28;20402;-71
2021/03/12 00:29:26;;;;;;;13.35;2.67;;;6.40;89.10;;;;;;5054165;28;20045;-71
2021/03/12 00:31:52;;;;;;;13.30;2.47;;;6.40;89.10;;;;;;5053996;28;20033;-71
2021/03/12 00:34:17;;;;;;;13.40;2.90;;;6.40;88.80;;;;;;5053665;28;20393;-71
2021/03/12 00:36:43;;;;;;;15.50;2.45;;;6.40;88.90;;;;;;5053874;28;20033;-72
2021/03/12 00:39:12;;;;;;;11.55;2.40;;;6.40;89.30;;;;;;5053629;28;20488;-72
2021/03/12 00:41:38;;;;;;;15.60;3.38;;;6.50;88.90;;;;;;5054162;28;20044;-72
2021/03/12 00:44:04;;;;;;;14.90;2.80;;;6.60;88.50;;;;;;5052663;28;20048;-72
2021/03/12 00:46:29;;;;;;;12.10;2.45;;;6.60;88.40;;;;;;5053366;28;20040;-72
2021/03/12 00:48:55;;;;;;;10.27;2.25;;;6.60;87.90;;;;;;5035943;28;20037;-72
2021/03/12 00:51:21;;;;;;;9.80;2.45;;;6.70;87.80;;;;;;5053317;28;20041;-72
2021/03/12 00:53:46;;;;;;;12.38;2.60;;;6.60;87.80;;;;;;5053311;28;20033;-72
2021/03/12 00:56:12;;;;;;;12.65;2.67;;;6.70;87.20;;;;;;5052914;28;20037;-72
2021/03/12 00:58:38;;;;;;;9.57;2.60;;;6.70;86.40;;;;;;5053426;28;20103;-72
2021/03/12 01:01:03;;;;;;;20.30;3.50;;;6.70;86.30;;;;;;5053512;28;20037;-72
2021/03/12 01:03:29;;;;;;;20.88;3.67;;;6.60;86.70;;;;;;5053422;28;20056;-72
2021/03/12 01:05:55;;;;;;;12.63;3.10;;;6.60;86.60;;;;;;5052947;28;20033;-72
2021/03/12 01:08:21;;;;;;;10.52;3.45;;;6.70;86.40;;;;;;5053262;28;20500;-72
2021/03/12 01:10:46;;;;;;;9.55;2.72;;;6.70;85.80;;;;;;5053717;28;20033;-72
2021/03/12 01:13:12;;;;;;;11.95;2.40;;;6.60;85.90;;;;;;5053204;28;20482;-72
2021/03/12 01:15:38;;;;;;;9.60;2.13;;;6.60;85.90;;;;;;5052684;28;20040;-72
2021/03/12 01:18:04;;;;;;;10.77;2.85;;;6.60;86.30;;;;;;5053065;28;20041;-72
2021/03/12 01:20:38;;;;;;;12.52;2.55;;;6.60;86.20;;;;;;5053634;28;20045;-72
2021/03/12 01:23:04;;;;;;;11.75;2.95;;;6.60;86.00;;;;;;5035305;28;20036;-72
2021/03/12 01:25:39;;;;;;;10.55;2.78;;;6.70;86.30;;;;;;5053004;28;20097;-72
2021/03/12 01:28:06;;;;;;;10.82;2.95;;;6.70;86.20;;;;;;5052937;28;20040;-72
2021/03/12 01:30:37;;;;;;;9.75;3.60;;;6.60;86.80;;;;;;5052857;28;20485;-72
2021/03/12 01:33:04;;;;;;;15.60;3.70;;;6.60;86.50;;;;;;5052868;28;20043;-72
2021/03/12 01:35:30;;;;;;;10.32;3.08;;;6.70;86.20;;;;;;5052632;28;20041;-72
2021/03/12 01:37:56;;;;;;;12.52;2.42;;;6.60;86.50;;;;;;5052728;28;20120;-72
2021/03/12 01:40:26;;;;;;;10.80;3.05;;;6.60;86.50;;;;;;5053346;28;20392;-72
2021/03/12 01:42:53;;;;;;;21.17;4.10;;;6.70;86.50;;;;;;5053220;28;20040;-72
2021/03/12 01:45:32;;;;;;;11.25;3.10;;;6.60;86.50;;;;;;5052379;28;20407;-72
2021/03/12 01:48:00;;;;;;;17.50;3.50;;;6.60;86.20;;;;;;5053531;28;20048;-72
2021/03/12 01:50:26;;;;;;;8.85;3.45;;;6.60;86.50;;;;;;5052770;28;20114;-72
2021/03/12 01:52:52;;;;;;;15.70;3.67;;;6.50;87.10;;;;;;5052803;28;20041;-72
2021/03/12 01:55:38;;;;;;;21.00;4.15;;;6.50;86.30;;;;;;5053154;28;20033;-73
2021/03/12 01:58:05;;;;;;;10.55;3.08;;;6.50;86.90;;;;;;5056416;28;20076;-72
2021/03/12 02:00:31;;;;;;;12.10;3.60;;;6.50;86.70;;;;;;5056616;28;20033;-72
2021/03/12 02:02:57;;;;;;;11.85;3.05;;;6.50;86.40;;;;;;5056496;28;20128;-72
2021/03/12 02:05:24;;;;;;;14.32;3.58;;;6.50;86.80;;;;;;5056263;28;20055;-73
2021/03/12 02:07:50;;;;;;;11.27;2.90;;;6.40;86.80;;;;;;5056716;28;20357;-72
2021/03/12 02:10:26;;;;;;;9.88;2.38;;;6.50;86.50;;;;;;5056473;28;20055;-72
2021/03/12 02:12:52;;;;;;;11.82;2.42;;;6.50;86.40;;;;;;5039183;28;20052;-72
2021/03/12 02:15:30;;;;;;;17.15;3.60;;;6.50;86.00;;;;;;5056087;28;20476;-72
2021/03/12 02:18:09;;;;;;;14.73;2.67;;;6.50;86.00;;;;;;5056409;28;20048;-72
2021/03/12 02:20:49;;;;;;;15.88;3.15;;;6.40;86.20;;;;;;5056434;28;20037;-72
2021/03/12 02:23:42;;;;;;;13.20;3.15;;;6.40;86.10;;;;;;5056403;28;20373;-72
2021/03/12 02:26:43;;;;;;;18.52;3.85;;;6.40;85.90;;;;;;5055972;28;20037;-72
2021/03/12 02:29:13;;;;;;;13.02;2.83;;;6.40;85.90;;;;;;5030502;28;20060;-72
2021/03/12 02:31:41;;;;;;;9.88;2.78;;;6.40;85.50;;;;;;5056680;28;20048;-72
2021/03/12 02:34:11;;;;;;;13.73;2.88;;;6.40;85.80;;;;;;5055928;28;20398;-72
2021/03/12 02:36:41;;;;;;;10.85;2.78;;;6.40;85.50;;;;;;5055602;28;20037;-72
2021/03/12 02:39:11;;;;;;;15.68;4.13;;;6.30;85.90;;;;;;5056112;28;20045;-72
2021/03/12 02:41:39;;;;;;;10.48;2.55;;;6.30;85.90;;;;;;5056535;28;20055;-72
2021/03/12 02:44:08;;;;;;;13.90;3.13;;;6.40;85.70;;;;;;5038307;28;20064;-72
2021/03/12 02:46:34;;;;;;;17.98;2.72;;;6.30;86.40;;;;;;5055419;28;20538;-73
2021/03/12 02:49:01;;;;;;;14.38;2.90;;;6.30;86.80;;;;;;5037902;28;20396;-72
2021/03/12 02:51:27;;;;;;;5.93;2.80;;;6.30;86.80;;;;;;5055777;28;20388;-72
2021/03/12 02:53:53;;;;;;;13.23;2.90;;;6.30;86.80;;;;;;5055541;28;20041;-72
2021/03/12 02:56:21;;;;;;;9.05;3.28;;;6.30;86.10;;;;;;5037318;28;20052;-72
2021/03/12 02:58:48;;;;;;;13.00;4.10;;;6.30;86.50;;;;;;5055543;28;20122;-72
2021/03/12 03:01:16;;;;;;;15.63;3.08;;;6.20;86.40;;;;;;5056165;28;20083;-72
2021/03/12 03:03:43;;;;;;;13.05;2.75;;;6.20;86.80;;;;;;5055981;28;20033;-72
2021/03/12 03:06:10;;;;;;;18.77;3.25;;;6.20;87.40;;;;;;5055321;28;20060;-72
2021/03/12 03:08:38;;;;;;;14.90;3.20;;;6.30;86.10;;;;;;5036984;28;20468;-72
2021/03/12 03:11:06;;;;;;;10.68;3.17;;;6.20;86.50;;;;;;5055290;28;20091;-72
2021/03/12 03:13:34;;;;;;;11.07;3.08;;;6.20;86.20;;;;;;5055849;28;20128;-72
2021/03/12 03:16:01;;;;;;;18.90;2.70;;;6.20;86.40;;;;;;5054883;28;20033;-72
2021/03/12 03:18:31;;;;;;;15.73;2.63;;;6.20;86.40;;;;;;5055434;28;20040;-72
2021/03/12 03:20:59;;;;;;;10.68;2.78;;;6.10;86.60;;;;;;5055867;28;20464;-72
2021/03/12 03:23:25;;;;;;;12.43;3.30;;;6.00;87.00;;;;;;5055745;28;20045;-72
2021/03/12 03:25:51;;;;;;;12.85;2.90;;;5.90;87.20;;;;;;5054979;28;20388;-72
2021/03/12 03:28:16;;;;;;;15.57;2.63;;;5.90;87.40;;;;;;5055019;28;20464;-72
2021/03/12 03:30:42;;;;;;;12.63;2.40;;;5.80;87.40;;;;;;5055028;28;20480;-72
2021/03/12 03:33:08;;;;;;;14.38;2.70;;;5.80;87.30;;;;;;5055402;28;20047;-72
2021/03/12 03:35:33;;;;;;;11.40;2.53;;;5.80;87.50;;;;;;5054619;28;20039;-72
2021/03/12 03:37:59;;;;;;;14.25;2.05;;;5.70;87.70;;;;;;5054993;28;20075;-72
2021/03/12 03:40:25;;;;;;;19.38;3.17;;;5.70;87.90;;;;;;5055411;28;20033;-72
2021/03/12 03:42:52;;;;;;;9.05;2.33;;;5.70;87.80;;;;;;5055489;28;20068;-72
2021/03/12 03:45:19;;;;;;;13.27;3.40;;;5.70;87.60;;;;;;5054563;28;20147;-72
2021/03/12 03:47:46;;;;;;;16.85;2.60;;;5.70;87.70;;;;;;5054822;28;20458;-72
2021/03/12 03:50:14;;;;;;;11.25;2.53;;;5.70;87.30;;;;;;5036830;28;20484;-72
2021/03/12 03:52:40;;;;;;;17.35;3.13;;;5.70;87.70;;;;;;5054411;28;20059;-72
2021/03/12 03:55:07;;;;;;;9.90;2.50;;;5.70;87.30;;;;;;5054352;28;20040;-72
2021/03/12 03:57:33;;;;;;;11.57;2.35;;;5.70;86.90;;;;;;5054336;28;20037;-72
2021/03/12 04:00:03;;;;;;;11.80;2.70;;;5.60;87.40;;;;;;5036788;28;20060;-72
2021/03/12 04:02:29;;;;;;;11.60;2.45;;;5.70;86.90;;;;;;5054490;28;20396;-72
2021/03/12 04:04:56;;;;;;;11.18;3.42;;;5.60;87.10;;;;;;5053941;28;20080;-72
2021/03/12 04:07:23;;;;;;;9.68;2.20;;;5.60;87.20;;;;;;5054144;28;20558;-72
2021/03/12 04:09:50;;;;;;;10.68;2.38;;;5.60;87.00;;;;;;5036291;28;20065;-72
2021/03/12 04:12:20;;;;;;;29.65;4.28;;;5.60;87.00;;;;;;5054579;28;20186;-72
2021/03/12 04:14:46;;;;;;;12.30;2.47;;;5.60;87.10;;;;;;5054235;28;20044;-73
2021/03/12 04:17:13;;;;;;;10.80;2.20;;;5.50;87.10;;;;;;5053853;28;20163;-72
2021/03/12 04:19:40;;;;;;;11.40;2.42;;;5.50;87.50;;;;;;5054336;28;20037;-72
2021/03/12 04:22:08;;;;;;;14.48;2.65;;;5.40;87.60;;;;;;5053906;28;20048;-72
2021/03/12 04:24:35;;;;;;;8.40;2.38;;;5.40;87.70;;;;;;5053761;28;20107;-73
2021/03/12 04:27:02;;;;;;;13.90;2.75;;;5.40;87.60;;;;;;5053822;28;20354;-72
2021/03/12 04:29:29;;;;;;;11.63;2.60;;;5.40;87.50;;;;;;5053780;28;20037;-72
2021/03/12 04:31:55;;;;;;;11.90;2.63;;;5.40;87.50;;;;;;5054267;28;20086;-72
2021/03/12 04:34:21;;;;;;;16.02;2.38;;;5.40;87.30;;;;;;5054117;28;20067;-72
2021/03/12 04:36:47;;;;;;;13.30;3.10;;;5.30;87.50;;;;;;5053620;28;20041;-72
2021/03/12 04:39:14;;;;;;;12.68;2.35;;;5.40;87.40;;;;;;5035875;28;20040;-72
2021/03/12 04:41:40;;;;;;;9.48;2.35;;;5.30;87.70;;;;;;5053590;28;20044;-72
2021/03/12 04:44:09;;;;;;;9.32;2.20;;;5.30;87.60;;;;;;5053670;28;20523;-72
2021/03/12 04:46:37;;;;;;;18.75;4.90;;;5.30;87.80;;;;;;5053686;28;20160;-72
2021/03/12 04:49:05;;;;;;;14.57;3.15;;;5.30;88.00;;;;;;5053461;28;20044;-72
2021/03/12 04:51:31;;;;;;;12.60;2.80;;;5.20;88.10;;;;;;5053561;28;20052;-72
2021/03/12 04:53:58;;;;;;;12.23;2.28;;;5.20;88.30;;;;;;5053559;28;20028;-72
2021/03/12 04:56:23;;;;;;;18.50;4.07;;;5.20;88.50;;;;;;5053566;28;20045;-72
2021/03/12 04:58:51;;;;;;;8.05;2.00;;;5.10;88.60;;;;;;5053637;28;20047;-72
2021/03/12 05:01:17;;;;;;;13.52;2.30;;;5.20;88.60;;;;;;5053592;28;20059;-72
2021/03/12 05:03:43;;;;;;;14.50;2.60;;;5.10;88.50;;;;;;5053947;28;20048;-72
2021/03/12 05:06:11;;;;;;;13.45;3.10;;;5.10;88.80;;;;;;5053526;28;20037;-72
2021/03/12 05:08:38;;;;;;;10.00;2.05;;;5.20;88.50;;;;;;5053276;28;20477;-72
2021/03/12 05:11:08;;;;;;;15.85;2.55;;;5.20;88.50;;;;;;5053134;28;20427;-72
2021/03/12 05:13:34;;;;;;;13.82;2.35;;;5.20;88.40;;;;;;5053326;28;20032;-72
2021/03/12 05:15:59;;;;;;;8.77;1.95;;;5.20;88.50;;;;;;5052653;28;20087;-72
2021/03/12 05:18:25;;;;;;;14.65;2.30;;;5.10;88.90;;;;;;5035861;28;20476;-72
2021/03/12 05:20:51;;;;;;;14.65;2.33;;;5.10;89.00;;;;;;5053617;28;20495;-72
2021/03/12 05:23:21;;;;;;;13.77;2.78;;;5.10;89.10;;;;;;5035541;28;20412;-72
2021/03/12 05:25:47;;;;;;;16.45;3.17;;;5.10;89.50;;;;;;5034833;28;20061;-72
2021/03/12 05:28:13;;;;;;;11.77;2.10;;;5.10;89.50;;;;;;5052967;28;20068;-72
2021/03/12 05:30:39;;;;;;;12.07;2.25;;;5.10;89.40;;;;;;5052606;28;20052;-72
2021/03/12 05:33:05;;;;;;;9.00;2.25;;;5.00;89.70;;;;;;5052892;28;20033;-72
2021/03/12 05:35:31;;;;;;;11.18;2.33;;;5.10;89.60;;;;;;5052691;28;20087;-72
2021/03/12 05:37:57;;;;;;;11.38;2.38;;;5.10;89.70;;;;;;5053441;28;20045;-72
2021/03/12 05:40:23;;;;;;;10.13;2.83;;;5.10;89.90;;;;;;5035521;28;20040;-72
2021/03/12 05:42:52;;;;;;;10.15;2.28;;;5.20;89.50;;;;;;5052966;28;20072;-72
2021/03/12 05:45:27;;;;;;;11.48;2.50;;;5.20;89.40;;;;;;5052688;28;20040;-72
2021/03/12 05:47:55;;;;;;;15.40;2.28;;;5.20;89.60;;;;;;5053260;28;20041;-72
2021/03/12 05:50:21;;;;;;;10.05;2.38;;;5.20;89.60;;;;;;5052933;28;20116;-72
2021/03/12 05:52:47;;;;;;;11.93;2.80;;;5.20;89.90;;;;;;5035309;28;20037;-72
2021/03/12 05:55:17;;;;;;;10.35;2.60;;;5.20;90.00;;;;;;5034797;28;20049;-72
2021/03/12 05:57:44;;;;;;;11.77;2.17;;;5.30;89.00;;;;;;5052767;28;20041;-72
2021/03/12 06:00:11;;;;;;;19.63;3.22;;;5.30;89.40;;;;;;5053348;28;20051;-72
2021/03/12 06:02:37;;;;;;;13.73;3.28;;;5.30;89.60;;;;;;5053271;28;20044;-72
2021/03/12 06:05:08;;;;;;;9.02;2.33;;;5.30;89.20;;;;;;5052398;28;20091;-72
2021/03/12 06:07:37;;;;;;;15.13;2.40;;;5.30;89.30;;;;;;5052598;28;20041;-71
2021/03/12 06:10:05;;;;;;;11.45;2.20;;;5.30;89.70;;;;;;5052637;28;20094;-72
2021/03/12 06:12:32;;;;;;;12.40;2.30;;;5.40;89.50;;;;;;5052373;28;20044;-72
2021/03/12 06:14:59;;;;;;;13.75;2.50;;;5.40;89.40;;;;;;5034446;28;20075;-72
2021/03/12 06:17:35;;;;;;;7.82;2.40;;;5.40;89.60;;;;;;5052320;28;20045;-72
2021/03/12 06:20:05;;;;;;;14.77;2.55;;;5.50;89.30;;;;;;5052481;28;20447;-72
2021/03/12 06:22:31;;;;;;;18.73;2.72;;;5.50;89.70;;;;;;5052657;28;20120;-72
2021/03/12 06:25:20;;;;;;;14.65;2.70;;;5.50;89.80;;;;;;5052322;28;20511;-72
2021/03/12 06:27:47;;;;;;;17.95;4.30;;;5.60;89.80;;;;;;5034587;28;20428;-72
2021/03/12 06:30:15;;;;;;;12.75;3.05;;;5.60;89.50;;;;;;5052188;28;20492;-72
2021/03/12 06:32:53;;;;;;;16.98;3.55;;;5.60;89.90;;;;;;5052646;28;20033;-72
2021/03/12 06:35:23;;;;;;;13.48;3.53;;;5.70;90.00;;;;;;5052209;28;20037;-72
2021/03/12 06:37:50;;;;;;;13.45;3.30;;;5.70;89.60;;;;;;5052082;28;20515;-72
2021/03/12 06:40:28;;;;;;;17.40;4.18;;;5.80;89.40;;;;;;5051001;28;20033;-73
2021/03/12 06:43:09;;;;;;;13.25;3.17;;;5.90;89.60;;;;;;5020161;28;20481;-72
2021/03/12 06:45:52;;;;;;;14.52;3.05;;;6.00;88.80;;;;;;5055579;28;20033;-73
2021/03/12 06:48:24;;;;;;;12.05;2.80;;;6.00;88.40;;;;;;5056099;28;20036;-73
2021/03/12 06:51:12;;;;;;;12.48;2.70;;;6.10;88.60;;;;;;5056293;28;20041;-73
2021/03/12 06:53:49;;;;;;;10.07;2.47;;;6.20;88.40;;;;;;5055484;28;20138;-73
2021/03/12 06:56:27;;;;;;;14.13;2.90;;;6.20;87.70;;;;;;5055477;28;20037;-73
2021/03/12 06:59:02;;;;;;;17.48;3.20;;;6.30;87.30;;;;;;5056275;28;20119;-73
2021/03/12 07:01:28;;;;;;;13.73;3.30;;;6.40;87.10;;;;;;5055660;28;20539;-73
2021/03/12 07:04:13;;;;;;;14.02;2.78;;;6.50;86.90;;;;;;5055544;28;20071;-73
2021/03/12 07:06:46;;;;;;;20.92;4.07;;;6.50;86.50;;;;;;5055169;28;20480;-73
2021/03/12 07:09:12;;;;;;;9.10;2.35;;;6.60;86.50;;;;;;5055950;28;20476;-73
2021/03/12 07:11:39;;;;;;;13.38;2.50;;;6.60;86.50;;;;;;5055704;28;20039;-73
2021/03/12 07:14:05;;;;;;;13.85;3.15;;;6.70;86.30;;;;;;5055662;28;20472;-73
2021/03/12 07:16:31;;;;;;;13.65;3.45;;;6.70;86.00;;;;;;5054867;28;20059;-73
2021/03/12 07:18:58;;;;;;;12.60;3.90;;;6.80;86.00;;;;;;5055907;28;20037;-73
2021/03/12 07:21:27;;;;;;;16.38;2.75;;;6.90;85.60;;;;;;5037735;28;20037;-73
2021/03/12 07:23:57;;;;;;;13.90;3.38;;;6.90;84.80;;;;;;5037166;28;20036;-73
2021/03/12 07:26:24;;;;;;;15.40;3.13;;;6.90;85.60;;;;;;5054704;28;20041;-73
2021/03/12 07:28:56;;;;;;;13.80;3.15;;;6.90;84.80;;;;;;5055443;28;20419;-73
2021/03/12 07:31:27;;;;;;;16.77;3.67;;;7.00;85.10;;;;;;5055770;28;20033;-73
2021/03/12 07:33:59;;;;;;;10.68;3.05;;;7.00;85.20;;;;;;5055643;28;20043;-73
2021/03/12 07:36:26;;;;;;;15.98;3.47;;;7.00;85.90;;;;;;5054647;28;20087;-73
2021/03/12 07:38:56;;;;;;;17.60;4.00;;;7.10;85.30;;;;;;5055000;28;20064;-73
2021/03/12 07:41:22;;;;;;;20.90;4.93;;;7.20;85.10;;;;;;5055230;28;20037;-73
2021/03/12 07:43:49;;;;;;;15.88;3.15;;;7.10;84.90;;;;;;5054887;28;20033;-73
2021/03/12 07:46:16;;;;;;;19.48;4.32;;;7.10;84.50;;;;;;5036853;28;20068;-73
2021/03/12 07:48:42;;;;;;;21.40;4.03;;;7.10;84.30;;;;;;5054676;28;20032;-73
2021/03/12 07:51:13;;;;;;;18.02;5.38;;;7.10;85.00;;;;;;5054885;28;20040;-72
2021/03/12 07:53:55;;;;;;;18.73;3.33;;;7.10;84.90;;;;;;5054206;28;20040;-72
2021/03/12 07:56:44;;;;;;;15.25;3.33;;;7.20;84.80;;;;;;5054395;28;20075;-73
2021/03/12 07:59:10;;;;;;;13.50;3.05;;;7.10;84.40;;;;;;5044219;28;20065;-73
2021/03/12 08:01:55;;;;;;;18.42;3.45;;;7.10;84.30;;;;;;5054920;28;20106;-73
2021/03/12 08:04:31;;;;;;;22.33;4.50;;;7.10;83.90;;;;;;5054294;28;20036;-74
2021/03/12 08:06:59;;;;;;;17.55;4.18;;;7.10;84.60;;;;;;5036838;28;20451;-73
2021/03/12 08:09:32;;;;;;;16.10;3.88;;;7.10;84.90;;;;;;5054327;28;20040;-73
2021/03/12 08:11:58;;;;;;;;;;;7.00;84.80;;;;;;5055325;28;20073;-73
2021/03/12 08:14:27;;;;;;;17.17;2.92;;;6.90;85.10;;;;;;5054162;28;19916;-73
2021/03/12 08:17:11;;;;;;;20.10;3.58;;;6.90;85.60;;;;;;5054923;28;20496;-73
2021/03/12 08:19:46;;;;;;;13.15;3.25;;;7.00;85.10;;;;;;5036946;28;20190;-73
2021/03/12 08:22:27;;;;;;;;;;;7.10;85.30;;;;;;5055203;28;20060;-73
2021/03/12 08:24:56;;;;;;;11.68;3.22;;;7.00;84.60;;;;;;5053979;28;19920;-73
2021/03/12 08:27:49;;;;;;;15.38;3.28;;;7.10;84.10;;;;;;5054240;28;20455;-73
2021/03/12 08:30:24;;;;;;;15.52;2.97;;;7.10;84.30;;;;;;5054795;28;20068;-73
2021/03/12 08:32:53;;;;;;;10.73;2.78;;;7.20;83.90;;;;;;5053963;28;20040;-73
2021/03/12 08:35:35;;;;;;;17.85;4.75;;;7.20;83.70;;;;;;5053600;28;20098;-73
2021/03/12 08:38:26;;;;;;;15.13;2.80;;;7.30;83.70;;;;;;5053900;28;20041;-73
2021/03/12 08:41:01;;;;;;;12.00;3.20;;;7.40;83.30;;;;;;5053841;28;20048;-73
2021/03/12 08:43:29;;;;;;;13.52;3.45;;;7.70;83.20;;;;;;5053767;28;20108;-73
2021/03/12 08:46:11;;;;;;;16.13;4.47;;;7.90;81.90;;;;;;5053482;28;20404;-73
2021/03/12 08:48:37;;;;;;;13.95;3.72;;;8.00;81.40;;;;;;5053696;28;20044;-73
2021/03/12 08:51:06;;;;;;;12.68;3.28;;;8.00;79.90;;;;;;5054246;28;20095;-73
2021/03/12 08:53:38;;;;;;;18.13;3.92;;;8.30;80.10;;;;;;5053645;28;20143;-73
2021/03/12 08:56:07;;;;;;;14.80;3.13;;;8.50;79.20;;;;;;5053499;28;20037;-73
2021/03/12 08:58:34;;;;;;;14.90;3.05;;;8.60;78.40;;;;;;5053940;28;20116;-73
2021/03/12 09:01:15;;;;;;;16.63;4.00;;;8.50;78.50;;;;;;5054356;28;20377;-73
2021/03/12 09:04:04;;;;;;;10.43;3.23;;;8.50;79.00;;;;;;5039376;28;20048;-73
2021/03/12 09:06:49;;;;;;;15.32;3.25;;;8.40;78.50;;;;;;5038583;28;20306;-73
2021/03/12 09:09:35;;;;;;;13.85;3.08;;;8.30;79.00;;;;;;5038429;28;20400;-73
2021/03/12 09:12:21;;;;;;;13.63;2.83;;;8.20;79.10;;;;;;5039125;28;20057;-73
2021/03/12 09:15:07;;;;;;;17.90;3.20;;;8.10;79.90;;;;;;5038905;28;20045;-73
2021/03/12 09:17:37;;;;;;;11.25;2.60;;;8.10;79.90;;;;;;5053368;28;20068;-73
2021/03/12 09:20:05;;;;;;;21.75;5.68;;;8.00;80.00;;;;;;5053939;28;20041;-73
2021/03/12 09:22:31;;;;;;;14.35;3.92;;;8.00;80.20;;;;;;5053396;28;20072;-73
2021/03/12 09:24:56;;;;;;;16.50;3.13;;;7.90;79.60;;;;;;5052917;28;20072;-73
2021/03/12 09:27:23;;;;;;;22.90;3.75;;;7.90;79.90;;;;;;5035582;28;20043;-73
2021/03/12 09:29:48;;;;;;;12.68;3.47;;;7.90;80.80;;;;;;5053346;28;20041;-73
2021/03/12 09:32:14;;;;;;;12.38;3.03;;;7.90;80.20;;;;;;5053556;28;20465;-73
2021/03/12 09:34:40;;;;;;;11.23;2.38;;;7.90;80.10;;;;;;5053389;28;20036;-73
2021/03/12 09:37:05;;;;;;;20.85;5.25;;;7.90;80.60;;;;;;5052860;28;20037;-73
2021/03/12 09:39:31;;;;;;;10.15;3.45;;;7.90;81.00;;;;;;5035821;28;20438;-73
2021/03/12 09:42:07;;;;;;;17.17;3.72;;;7.80;81.60;;;;;;5053412;28;20037;-72
2021/03/12 09:44:34;;;;;;;19.83;3.33;;;7.80;82.00;;;;;;5052759;28;20071;-72
2021/03/12 09:47:06;;;;;;;18.23;3.70;;;7.80;82.20;;;;;;5052888;28;20095;-72
2021/03/12 09:49:36;;;;;;;13.32;2.80;;;8.00;82.10;;;;;;5053146;28;20033;-73
2021/03/12 09:52:08;;;;;;;15.00;3.55;;;8.10;81.90;;;;;;5035298;28;20469;-73
2021/03/12 09:54:34;;;;;;;17.55;4.80;;;8.20;81.10;;;;;;5053008;28;20037;-72
2021/03/12 09:57:00;;;;;;;20.90;3.65;;;8.30;79.70;;;;;;5052738;28;20150;-72
2021/03/12 09:59:32;;;;;;;15.00;2.90;;;8.30;81.00;;;;;;5052697;28;20120;-73
2021/03/12 10:02:03;;;;;;;20.08;3.53;;;8.30;80.90;;;;;;5052827;28;20069;-73
2021/03/12 10:04:37;;;;;;;14.40;3.35;;;8.30;79.80;;;;;;5052622;28;20048;-73
2021/03/12 10:07:05;;;;;;;;;;;8.30;80.50;;;;;;5053484;28;20040;-73
2021/03/12 10:09:31;;;;;;;15.05;3.00;;;8.20;79.40;;;;;;5053340;28;20012;-73
2021/03/12 10:11:58;;;;;;;19.60;4.68;;;8.20;79.50;;;;;;5052988;28;20564;-73
2021/03/12 10:14:33;;;;;;;13.75;3.22;;;8.20;80.00;;;;;;5052987;28;20384;-74
2021/03/12 10:17:17;;;;;;;15.73;3.85;;;8.00;81.10;;;;;;5054169;28;20098;-73
2021/03/12 10:19:50;;;;;;;;;;;7.90;81.40;;;;;;5057641;28;20041;-72
2021/03/12 10:22:29;;;;;;;11.83;2.97;;;8.00;82.50;;;;;;5057069;28;19917;-73
2021/03/12 10:24:59;;;;;;;14.27;3.00;;;8.00;82.30;;;;;;5056011;28;20750;-73
2021/03/12 10:27:29;;;;;;;8.27;2.78;;;8.10;81.00;;;;;;5056255;28;20065;-73
2021/03/12 10:29:55;;;;;;;14.93;4.38;;;8.20;81.40;;;;;;5056249;28;20039;-73
2021/03/12 10:32:21;;;;;;;16.50;3.47;;;8.40;80.80;;;;;;5056420;28;20391;-73
2021/03/12 10:34:51;;;;;;;15.55;3.72;;;8.50;80.00;;;;;;5055992;28;20064;-73
2021/03/12 10:37:22;;;;;;;14.43;4.32;;;8.50;79.60;;;;;;5056404;28;20072;-73
2021/03/12 10:39:51;;;;;;;14.98;3.05;;;8.50;79.70;;;;;;5056264;28;20116;-73
2021/03/12 10:42:26;;;;;;;11.82;3.53;;;8.50;80.40;;;;;;5055959;28;20069;-72
2021/03/12 10:44:56;;;;;;;13.75;2.72;;;8.30;82.20;;;;;;5055907;28;20116;-72
2021/03/12 10:47:22;;;;;;;12.15;3.28;;;8.10;83.80;;;;;;5056259;28;20044;-72
2021/03/12 10:49:48;;;;;;;10.32;3.25;;;8.10;84.40;;;;;;5056121;28;20053;-72
2021/03/12 10:52:28;;;;;;;8.40;3.80;;;8.10;84.30;;;;;;5056273;28;20101;-72
2021/03/12 10:54:56;;;;;;;11.90;3.92;;;8.00;85.40;;;;;;5037152;28;20476;-70
2021/03/12 10:57:35;;;;;;;13.48;4.57;;;8.10;85.40;;;;;;5038411;28;20033;-71
2021/03/12 11:00:01;;;;;;;15.43;4.22;;;8.20;84.50;;;;;;5056173;28;20435;-72
2021/03/12 11:02:35;;;;;;;19.10;5.55;;;8.30;84.90;;;;;;5056253;28;20041;-72
2021/03/12 11:05:00;;;;;;;20.60;5.00;;;8.40;84.80;;;;;;5055823;28;20037;-72
2021/03/12 11:07:26;;;;;;;15.60;4.63;;;8.60;84.30;;;;;;5055471;28;20143;-72
2021/03/12 11:09:52;;;;;;;20.80;4.47;;;8.70;84.20;;;;;;5055594;28;20074;-72
2021/03/12 11:12:18;;;;;;;16.38;4.13;;;8.70;82.90;;;;;;5055819;28;20041;-72
2021/03/12 11:14:44;;;;;;;11.82;4.38;;;8.80;82.40;;;;;;5055740;28;20499;-72
2021/03/12 11:17:10;;;;;;;14.98;4.30;;;8.80;81.40;;;;;;5055181;28;20041;-72
2021/03/12 11:19:35;;;;;;;19.17;5.10;;;8.70;81.50;;;;;;5055424;28;20044;-72
2021/03/12 11:22:01;;;;;;;10.75;2.90;;;8.60;83.30;;;;;;5055309;28;20537;-72
2021/03/12 11:24:27;;;;;;;13.77;3.42;;;8.50;83.80;;;;;;5055351;28;20040;-72
2021/03/12 11:26:52;;;;;;;15.82;4.15;;;8.50;83.50;;;;;;5055192;28;20044;-72
2021/03/12 11:29:19;;;;;;;19.95;4.13;;;8.40;84.70;;;;;;5054120;28;20041;-72
2021/03/12 11:31:45;;;;;;;22.48;6.32;;;8.40;84.70;;;;;;5055070;28;20043;-72
2021/03/12 11:34:10;;;;;;;14.63;5.30;;;8.30;85.00;;;;;;5055362;28;20048;-71
2021/03/12 11:36:36;;;;;;;22.73;5.38;;;8.20;87.40;;;;;;5055181;28;20040;-71
2021/03/12 11:39:03;;;;;;;23.20;6.30;;;8.10;88.50;;;;;;5055119;28;20051;-71
2021/03/12 11:41:32;;;;;;;24.13;7.75;;;7.90;89.90;;;;;;5054946;28;20443;-72
2021/03/12 11:43:58;;;;;;;21.35;6.47;;;7.80;90.10;;;;;;5055505;28;20029;-72
2021/03/12 11:46:24;;;;;;;16.98;3.88;;;7.70;90.00;;;;;;5054611;28;20369;-71
2021/03/12 11:48:50;;;;;;;11.55;3.88;;;7.70;89.20;;;;;;5055274;28;20480;-72
2021/03/12 11:51:15;;;;;;;7.95;2.80;;;7.50;89.40;;;;;;5055149;28;20044;-72
2021/03/12 11:53:41;;;;;;;12.88;4.03;;;7.40;90.00;;;;;;5055265;28;20473;-72
2021/03/12 11:56:06;;;;;;;14.73;4.15;;;7.30;90.20;;;;;;5054621;28;20044;-72
2021/03/12 11:58:32;;;;;;;16.08;4.45;;;7.20;90.90;;;;;;5054674;28;20043;-71
2021/03/12 12:00:58;;;;;;;10.90;3.22;;;7.20;91.40;;;;;;5054529;28;20492;-72
2021/03/12 12:03:24;;;;;;;9.07;3.60;;;7.30;91.40;;;;;;5054442;28;20095;-72
2021/03/12 12:05:49;;;;;;;11.32;4.03;;;7.30;91.30;;;;;;5053646;28;20048;-72
2021/03/12 12:08:15;;;;;;;8.60;4.30;;;7.30;92.00;;;;;;5054881;28;20102;-72
2021/03/12 12:10:41;;;;;;;14.63;3.97;;;7.40;91.70;;;;;;5054889;28;20044;-72
2021/03/12 12:13:06;;;;;;;9.63;3.53;;;7.50;91.80;;;;;;5054466;28;20041;-72
2021/03/12 12:15:35;;;;;;;9.43;3.55;;;7.70;92.10;;;;;;5053816;28;20044;-72
2021/03/12 12:18:05;;;;;;;10.48;4.25;;;7.90;92.10;;;;;;5036357;28;20123;-72
2021/03/12 12:20:31;;;;;;;10.38;4.10;;;8.00;92.20;;;;;;5054491;28;20052;-72
2021/03/12 12:22:58;;;;;;;15.82;3.38;;;8.10;91.80;;;;;;5054686;28;20372;-72
2021/03/12 12:25:24;;;;;;;12.10;3.88;;;8.20;91.20;;;;;;5054009;28;20087;-73
2021/03/12 12:27:50;;;;;;;11.48;3.22;;;8.10;91.40;;;;;;5053953;28;20408;-73
2021/03/12 12:30:16;;;;;;;8.98;2.80;;;8.20;90.90;;;;;;5054190;28;20041;-72
2021/03/12 12:32:42;;;;;;;11.23;3.10;;;8.30;90.50;;;;;;5054413;28;20037;-72
2021/03/12 12:35:09;;;;;;;9.63;2.75;;;8.30;90.30;;;;;;5053866;28;20055;-73
2021/03/12 12:37:35;;;;;;;7.32;2.55;;;8.30;90.40;;;;;;5053557;28;20037;-73
2021/03/12 12:40:03;;;;;;;6.00;2.67;;;8.30;90.10;;;;;;5054135;28;20377;-73
2021/03/12 12:42:28;;;;;;;8.15;2.15;;;8.30;90.50;;;;;;5054235;28;20037;-73
2021/03/12 12:44:54;;;;;;;5.40;3.08;;;8.30;89.70;;;;;;5052607;28;20102;-73
2021/03/12 12:47:20;;;;;;;9.20;3.97;;;8.20;90.10;;;;;;5053920;28;20075;-73
2021/03/12 12:49:45;;;;;;;10.30;3.28;;;8.30;89.80;;;;;;5053560;28;20064;-72
2021/03/12 12:52:11;;;;;;;6.68;2.78;;;8.30;90.10;;;;;;5054293;28;20041;-72
2021/03/12 12:54:37;;;;;;;10.55;3.50;;;8.40;90.20;;;;;;5053022;28;20033;-73
2021/03/12 12:57:02;;;;;;;12.05;4.05;;;8.40;90.30;;;;;;5053387;28;20032;-73
2021/03/12 12:59:28;;;;;;;13.48;4.03;;;8.50;90.50;;;;;;5053348;28;20118;-72